Time;durP1;ratioP1;P1;durP2;ratioP2;P2;SDS_P1;SDS_P2;PMS_P1;PMS_P2;Temp;Humidity;BMP_temperature;BMP_pressure;BME280_temperature;BME280_humidity;BME280_pressure;Samples;Min_cycle;Max_cycle;Signal;HPM_P1;HPM_P2
2024/03/17 00:00:25;;;;;;;5.65;1.27;;;;;;;31.82;31.77;99681.59;7399011;19;20011;-54
2024/03/17 00:02:51;;;;;;;3.30;1.27;;;;;;;31.85;31.33;99683.22;7393133;19;20010;-53
2024/03/17 00:05:18;;;;;;;4.45;1.48;;;;;;;32.09;30.91;99671.06;7394830;19;20050;-53
2024/03/17 00:07:44;;;;;;;4.10;1.63;;;;;;;33.08;30.35;99678.84;7393267;19;20364;-54
2024/03/17 00:10:11;;;;;;;12.18;2.30;;;;;;;33.42;29.95;99672.78;7394778;19;20027;-54
2024/03/17 00:12:37;;;;;;;2.72;1.10;;;;;;;33.62;29.93;99661.56;7393112;19;20763;-53
2024/03/17 00:15:06;;;;;;;3.58;1.55;;;;;;;33.02;30.05;99661.19;7391519;19;20018;-53
2024/03/17 00:17:32;;;;;;;3.65;1.88;;;;;;;32.41;30.55;99659.88;7394621;19;20014;-53
2024/03/17 00:20:08;;;;;;;1.92;1.40;;;;;;;31.92;31.26;99639.00;7394018;19;20076;-53
2024/03/17 00:22:39;;;;;;;4.57;1.45;;;;;;;31.91;31.49;99646.13;7392809;19;20010;-53
2024/03/17 00:25:06;;;;;;;3.75;1.33;;;;;;;32.87;30.78;99645.97;7392904;19;20014;-53
2024/03/17 00:27:34;;;;;;;4.57;1.35;;;;;;;33.15;30.60;99649.69;7393842;19;20466;-53
2024/03/17 00:30:02;;;;;;;3.75;1.13;;;;;;;33.29;30.77;99647.53;7395345;19;20069;-53
2024/03/17 00:32:29;;;;;;;5.18;2.40;;;;;;;33.18;30.08;99647.66;7393237;19;20041;-53
2024/03/17 00:34:56;;;;;;;7.68;2.47;;;;;;;33.32;30.00;99645.50;7392350;19;20006;-53
2024/03/17 00:37:25;;;;;;;1.35;0.98;;;;;;;33.26;30.01;99639.41;7392146;19;20078;-53
2024/03/17 00:39:52;;;;;;;3.20;1.67;;;;;;;33.24;30.21;99639.31;7394541;19;20017;-53
2024/03/17 00:42:19;;;;;;;2.47;1.52;;;;;;;33.29;30.35;99633.09;7395941;19;20055;-53
2024/03/17 00:44:46;;;;;;;4.72;2.92;;;;;;;33.25;30.46;99632.13;7391865;19;20015;-53
2024/03/17 00:47:13;;;;;;;8.10;2.28;;;;;;;33.29;30.24;99630.22;7391815;19;20038;-53
2024/03/17 00:49:39;;;;;;;7.28;2.58;;;;;;;33.31;30.53;99620.94;7393413;19;20119;-53
2024/03/17 00:52:05;;;;;;;7.95;2.50;;;;;;;33.53;30.36;99619.22;7390794;19;20030;-53
2024/03/17 00:54:33;;;;;;;4.18;2.05;;;;;;;33.09;30.58;99622.63;7391790;19;20038;-53
2024/03/17 00:57:12;;;;;;;6.82;2.15;;;;;;;33.21;30.53;99624.00;7390473;19;20018;-53
2024/03/17 01:02:47;;;;;;;8.27;1.95;;;;;;;34.11;29.90;99625.09;7391483;19;20010;-96
2024/03/17 01:05:13;;;;;;;9.85;2.88;;;;;;;34.14;29.83;99628.84;7395191;19;20298;-91
2024/03/17 01:07:49;;;;;;;6.80;2.40;;;;;;;33.62;30.44;99626.91;7390023;19;20082;-86
2024/03/17 01:10:16;;;;;;;3.35;1.17;;;;;;;34.09;29.84;99633.69;7393220;19;20527;-88
2024/03/17 01:12:42;;;;;;;7.88;2.65;;;;;;;34.26;29.55;99624.41;7388556;19;20382;-88
2024/03/17 01:15:10;;;;;;;5.78;2.65;;;;;;;34.50;29.75;99615.44;7389624;19;20046;-88
2024/03/17 01:17:36;;;;;;;5.95;1.50;;;;;;;34.47;29.47;99614.59;7388414;19;20011;-83
2024/03/17 01:20:03;;;;;;;6.47;1.65;;;;;;;33.89;30.12;99609.53;7391623;19;20021;-96
2024/03/17 01:22:29;;;;;;;8.10;1.52;;;;;;;33.64;30.21;99612.56;7395627;19;20018;-96
2024/03/17 01:24:55;;;;;;;5.75;1.80;;;;;;;33.72;30.34;99613.00;7394013;19;20032;-96
2024/03/17 01:27:21;;;;;;;1.30;1.20;;;;;;;33.90;30.09;99610.25;7391808;19;20018;-94
2024/03/17 01:29:48;;;;;;;6.93;1.88;;;;;;;33.44;30.40;99599.97;7393704;19;20031;-92
2024/03/17 01:32:14;;;;;;;3.58;2.15;;;;;;;33.27;30.90;99591.81;7390288;19;20022;-90
2024/03/17 01:34:40;;;;;;;4.53;1.08;;;;;;;33.12;31.00;99598.22;7388724;19;20435;-88
2024/03/17 01:37:07;;;;;;;5.40;1.60;;;;;;;33.19;30.82;99597.94;7388589;19;20014;-88
2024/03/17 01:39:33;;;;;;;7.03;1.65;;;;;;;33.13;30.97;99596.84;7391249;19;20045;-88
2024/03/17 01:41:59;;;;;;;2.25;1.42;;;;;;;33.37;30.88;99589.47;7391364;19;20054;-87
2024/03/17 01:44:28;;;;;;;2.78;1.55;;;;;;;33.54;30.64;99586.06;7388226;19;20034;-84
2024/03/17 01:46:56;;;;;;;4.20;1.20;;;;;;;33.68;30.41;99589.66;7387734;19;20014;-85
2024/03/17 01:49:24;;;;;;;3.08;1.58;;;;;;;33.71;30.48;99579.72;7392236;19;20358;-87
2024/03/17 01:51:51;;;;;;;5.85;1.83;;;;;;;33.37;30.76;99577.94;7387930;19;20022;-88
2024/03/17 01:54:17;;;;;;;5.47;2.47;;;;;;;33.59;30.79;99582.00;7393379;19;20506;-86
2024/03/17 01:56:44;;;;;;;15.10;2.15;;;;;;;33.47;30.80;99576.31;7394644;19;20022;-83
2024/03/17 01:59:10;;;;;;;4.50;1.23;;;;;;;33.43;30.82;99569.56;7396941;19;20021;-83
2024/03/17 02:01:37;;;;;;;4.40;1.13;;;;;;;33.63;30.59;99572.78;7394368;19;20018;-85
2024/03/17 02:04:04;;;;;;;3.35;0.95;;;;;;;33.91;30.46;99569.19;7395894;19;20475;-84
2024/03/17 02:06:31;;;;;;;4.82;1.75;;;;;;;33.75;30.50;99565.47;7391590;19;20012;-83
2024/03/17 02:08:57;;;;;;;2.00;1.35;;;;;;;33.70;30.80;99557.25;7396191;19;20010;-84
2024/03/17 02:11:28;;;;;;;1.10;0.60;;;;;;;33.61;30.70;99553.94;7398124;19;20023;-89
2024/03/17 02:13:55;;;;;;;1.67;1.15;;;;;;;34.35;30.15;99551.13;7391849;19;20021;-84
2024/03/17 02:16:22;;;;;;;3.67;1.38;;;;;;;34.28;29.99;99539.94;7390949;19;20486;-82
2024/03/17 02:18:48;;;;;;;7.10;1.35;;;;;;;34.35;30.00;99545.34;7395734;19;20025;-82
2024/03/17 02:21:15;;;;;;;4.95;0.55;;;;;;;34.13;29.78;99541.38;7394835;19;20081;-83
2024/03/17 02:23:42;;;;;;;1.75;1.23;;;;;;;34.16;30.07;99540.06;7393889;19;20022;-82
2024/03/17 02:26:09;;;;;;;2.15;1.05;;;;;;;34.14;30.08;99536.34;7392210;19;20021;-82
2024/03/17 02:28:42;;;;;;;13.63;2.28;;;;;;;33.94;29.96;99530.28;7393832;19;20501;-82
2024/03/17 02:31:12;;;;;;;3.97;1.27;;;;;;;33.80;30.42;99531.75;7396468;19;20041;-82
2024/03/17 02:33:38;;;;;;;4.57;1.37;;;;;;;33.90;30.16;99521.44;7392273;19;20432;-82
2024/03/17 02:36:09;;;;;;;2.42;1.05;;;;;;;34.07;30.04;99523.75;7392813;19;20349;-82
2024/03/17 02:41:21;;;;;;;12.20;1.27;;;;;;;33.66;30.68;99517.34;7394739;19;20212;-83
2024/03/17 02:43:47;;;;;;;1.80;1.45;;;;;;;34.66;30.14;99509.91;7394969;19;20359;-83
2024/03/17 02:46:15;;;;;;;3.83;0.98;;;;;;;34.01;30.08;99511.88;7390422;19;20021;-83
2024/03/17 02:48:46;;;;;;;3.13;1.27;;;;;;;33.74;30.50;99508.34;7392882;19;20407;-83
2024/03/17 02:51:14;;;;;;;3.88;0.82;;;;;;;33.68;30.57;99505.88;7395234;19;20014;-83
2024/03/17 02:53:47;;;;;;;14.48;1.20;;;;;;;33.63;30.47;99506.34;7391013;19;20022;-83
2024/03/17 02:56:17;;;;;;;0.32;0.32;;;;;;;33.58;31.03;99509.03;7396479;19;20037;-83
2024/03/17 02:58:49;;;;;;;0.30;0.30;;;;;;;33.67;31.10;99506.53;7393636;19;20037;-84
2024/03/17 03:01:16;;;;;;;4.68;1.33;;;;;;;34.99;29.85;99501.31;7392643;19;20343;-83
2024/03/17 03:03:42;;;;;;;3.80;0.93;;;;;;;33.70;30.46;99487.91;7392969;19;20489;-83
2024/03/17 03:06:14;;;;;;;5.95;1.48;;;;;;;35.14;29.43;99484.56;7391533;19;20025;-83
2024/03/17 03:08:41;;;;;;;5.47;1.27;;;;;;;35.00;29.56;99476.00;7399205;19;20018;-83
2024/03/17 03:11:13;;;;;;;1.15;0.30;;;;;;;34.91;29.31;99474.88;7394265;19;20014;-83
2024/03/17 03:13:41;;;;;;;1.27;1.00;;;;;;;34.86;29.85;99476.09;7389877;19;20018;-84
2024/03/17 03:16:08;;;;;;;2.03;0.77;;;;;;;34.49;30.14;99483.75;7389664;19;20026;-84
2024/03/17 03:18:35;;;;;;;2.75;0.80;;;;;;;34.71;29.59;99468.19;7396152;19;20022;-83
2024/03/17 03:21:01;;;;;;;3.58;0.73;;;;;;;35.18;29.48;99467.34;7391928;19;20047;-83
2024/03/17 03:23:27;;;;;;;4.13;1.45;;;;;;;35.48;29.16;99469.41;7393482;19;20460;-84
2024/03/17 03:25:58;;;;;;;5.57;1.75;;;;;;;35.63;28.91;99470.75;7392055;19;20022;-84
2024/03/17 03:28:25;;;;;;;2.58;1.23;;;;;;;35.85;29.05;99465.84;7396319;19;20019;-84
2024/03/17 03:30:51;;;;;;;1.67;1.25;;;;;;;35.96;28.64;99453.28;7391389;19;20018;-84
2024/03/17 03:33:21;;;;;;;1.20;0.98;;;;;;;35.35;29.32;99455.81;7389854;19;20586;-84
2024/03/17 03:35:48;;;;;;;1.48;1.00;;;;;;;35.35;29.21;99460.84;7392195;19;20010;-84
2024/03/17 03:38:15;;;;;;;1.95;1.05;;;;;;;35.25;29.29;99451.72;7394609;19;20014;-84
2024/03/17 03:40:41;;;;;;;3.35;1.15;;;;;;;36.23;28.56;99446.34;7394142;19;20018;-83
2024/03/17 03:43:08;;;;;;;7.45;1.35;;;;;;;35.54;29.30;99454.44;7391375;19;20348;-84
2024/03/17 03:45:36;;;;;;;2.00;0.95;;;;;;;35.41;29.37;99453.16;7390290;19;20021;-84
2024/03/17 03:48:02;;;;;;;0.68;0.43;;;;;;;35.29;29.04;99452.66;7392769;19;20023;-84
2024/03/17 03:50:29;;;;;;;2.60;1.45;;;;;;;35.13;29.20;99451.97;7392966;19;20031;-84
2024/03/17 03:52:55;;;;;;;3.10;0.90;;;;;;;35.08;29.42;99441.63;7389728;19;20018;-84
2024/03/17 03:55:22;;;;;;;1.77;0.55;;;;;;;33.63;30.77;99451.47;7390814;19;20464;-84
2024/03/17 03:57:50;;;;;;;3.25;0.90;;;;;;;33.19;31.45;99447.06;7390560;19;20368;-83
2024/03/17 04:00:21;;;;;;;0.63;0.25;;;;;;;32.80;32.09;99447.97;7392044;19;20126;-84
2024/03/17 04:02:52;;;;;;;3.83;1.25;;;;;;;32.45;32.37;99441.72;7391167;19;20026;-84
2024/03/17 04:05:19;;;;;;;1.23;0.55;;;;;;;32.90;31.87;99439.81;7390885;19;20039;-84
2024/03/17 04:07:46;;;;;;;2.53;1.25;;;;;;;34.25;30.77;99432.09;7390855;19;20345;-84
2024/03/17 04:10:14;;;;;;;1.98;0.22;;;;;;;32.58;32.30;99438.13;7390763;19;20303;-84
2024/03/17 04:12:40;;;;;;;1.23;0.40;;;;;;;33.78;31.56;99431.28;7390992;19;20021;-84
2024/03/17 04:15:07;;;;;;;1.85;0.52;;;;;;;32.62;32.38;99432.56;7390358;19;20011;-83
2024/03/17 04:17:33;;;;;;;2.95;0.30;;;;;;;32.24;32.53;99426.88;7388724;19;20010;-84
2024/03/17 04:20:00;;;;;;;2.35;0.60;;;;;;;29.91;35.68;99432.44;7390118;19;20018;-83
2024/03/17 04:22:27;;;;;;;0.73;0.60;;;;;;;29.71;36.13;99434.00;7389355;19;20350;-83
2024/03/17 04:24:53;;;;;;;5.45;0.38;;;;;;;28.67;36.97;99432.72;7389703;19;20026;-84
2024/03/17 04:27:23;;;;;;;1.60;1.10;;;;;;;27.43;39.65;99433.84;7390182;19;20037;-84
2024/03/17 04:29:51;;;;;;;0.32;0.30;;;;;;;27.81;39.28;99433.75;7389515;19;20020;-84
2024/03/17 04:32:17;;;;;;;12.27;0.77;;;;;;;26.86;40.79;99432.44;7389107;19;20022;-84
2024/03/17 04:34:43;;;;;;;1.15;0.20;;;;;;;25.43;43.82;99438.22;7389475;19;20018;-83
2024/03/17 04:37:13;;;;;;;1.00;0.50;;;;;;;26.58;42.29;99441.66;7388597;19;20041;-84
2024/03/17 04:39:44;;;;;;;1.35;0.40;;;;;;;25.55;45.27;99432.75;7389209;19;20086;-84
2024/03/17 04:42:17;;;;;;;8.60;0.98;;;;;;;24.87;48.32;99427.81;7392157;19;20010;-84
2024/03/17 04:44:44;;;;;;;0.85;0.20;;;;;;;25.30;48.47;99424.28;7387529;19;20476;-84
2024/03/17 04:47:12;;;;;;;1.98;0.52;;;;;;;24.88;50.36;99434.25;7389546;19;20026;-84
2024/03/17 04:49:40;;;;;;;6.85;0.35;;;;;;;25.19;49.69;99427.63;7389295;19;20086;-84
2024/03/17 04:52:07;;;;;;;0.98;0.65;;;;;;;27.62;44.22;99430.94;7392957;19;20035;-83
2024/03/17 04:54:34;;;;;;;1.45;0.30;;;;;;;31.38;38.80;99415.56;7388515;19;20018;-84
2024/03/17 04:57:00;;;;;;;0.45;0.45;;;;;;;33.30;35.64;99411.53;7388097;19;20023;-84
2024/03/17 04:59:27;;;;;;;0.65;0.30;;;;;;;34.28;33.94;99412.69;7391409;19;20373;-84
2024/03/17 05:01:53;;;;;;;0.40;0.40;;;;;;;34.63;33.17;99412.13;7389789;19;20097;-84
2024/03/17 05:04:20;;;;;;;4.32;1.15;;;;;;;34.56;32.94;99411.09;7393406;19;20018;-84
2024/03/17 05:06:46;;;;;;;0.45;0.35;;;;;;;34.56;32.72;99399.53;7388657;19;20039;-84
2024/03/17 05:09:19;;;;;;;1.85;0.50;;;;;;;34.26;32.89;99404.66;7389660;19;20023;-84
2024/03/17 05:11:45;;;;;;;3.72;1.42;;;;;;;34.42;32.83;99401.00;7391886;19;20021;-84
2024/03/17 05:14:11;;;;;;;3.65;0.75;;;;;;;35.73;31.43;99405.25;7388268;19;20119;-84
2024/03/17 05:16:38;;;;;;;0.70;0.65;;;;;;;35.41;31.62;99401.00;7385656;19;20368;-84
2024/03/17 05:19:04;;;;;;;0.52;0.30;;;;;;;34.97;31.99;99402.03;7388182;19;20371;-84
2024/03/17 05:21:30;;;;;;;0.10;0.00;;;;;;;34.92;31.73;99404.00;7388734;19;20022;-84
2024/03/17 05:23:57;;;;;;;1.35;0.30;;;;;;;34.85;31.60;99398.59;7389204;19;20014;-84
2024/03/17 05:26:24;;;;;;;0.25;0.25;;;;;;;34.97;31.64;99404.94;7391132;19;20406;-84
2024/03/17 05:28:50;;;;;;;0.15;0.15;;;;;;;35.22;31.28;99407.47;7392694;19;20035;-84
2024/03/17 05:31:17;;;;;;;0.30;0.20;;;;;;;35.09;31.55;99402.56;7395780;19;20499;-84
2024/03/17 05:33:44;;;;;;;0.60;0.30;;;;;;;35.17;31.38;99394.25;7392345;19;20054;-84
2024/03/17 05:36:10;;;;;;;0.65;0.40;;;;;;;35.42;31.42;99396.72;7390979;19;20026;-84
2024/03/17 05:38:36;;;;;;;0.15;0.05;;;;;;;35.69;31.01;99396.38;7400874;19;20011;-84
2024/03/17 05:41:05;;;;;;;0.57;0.25;;;;;;;35.67;31.23;99404.28;7398312;19;20104;-84
2024/03/17 05:43:35;;;;;;;0.75;0.43;;;;;;;35.32;30.92;99393.41;7395983;19;20026;-84
2024/03/17 05:46:06;;;;;;;2.47;0.35;;;;;;;35.36;30.97;99398.63;7393347;19;20011;-84
2024/03/17 05:48:40;;;;;;;0.25;0.25;;;;;;;35.45;30.87;99400.44;7393537;19;20011;-85
2024/03/17 05:51:07;;;;;;;2.95;0.30;;;;;;;35.40;30.72;99399.53;7395964;19;20070;-84
2024/03/17 05:53:34;;;;;;;0.40;0.10;;;;;;;35.27;31.03;99396.78;7393223;19;20018;-84
2024/03/17 05:56:02;;;;;;;0.10;0.05;;;;;;;36.12;30.38;99392.28;7393043;19;20011;-84
2024/03/17 05:58:29;;;;;;;0.10;0.00;;;;;;;36.50;29.67;99396.63;7397127;19;20010;-84
2024/03/17 06:00:55;;;;;;;0.13;0.13;;;;;;;36.52;29.95;99393.78;7396754;19;20022;-84
2024/03/17 06:03:21;;;;;;;0.20;0.03;;;;;;;36.54;29.79;99388.06;7395899;19;20031;-84
2024/03/17 06:05:48;;;;;;;0.13;0.03;;;;;;;36.74;29.89;99388.03;7392819;19;20018;-84
2024/03/17 06:08:15;;;;;;;0.47;0.10;;;;;;;36.52;29.67;99381.47;7394584;19;20019;-85
2024/03/17 06:10:48;;;;;;;0.68;0.32;;;;;;;36.19;29.84;99388.19;7394758;19;20383;-84
2024/03/17 06:13:16;;;;;;;0.20;0.20;;;;;;;36.46;29.52;99376.16;7393942;19;20019;-84
2024/03/17 06:15:44;;;;;;;0.10;0.10;;;;;;;36.99;29.51;99382.44;7392787;19;20011;-84
2024/03/17 06:18:13;;;;;;;0.30;0.30;;;;;;;36.62;29.56;99381.81;7393290;19;20401;-84
2024/03/17 06:20:44;;;;;;;1.17;0.70;;;;;;;36.34;29.95;99375.72;7394035;19;20394;-83
2024/03/17 06:23:12;;;;;;;0.10;0.10;;;;;;;36.36;29.78;99378.69;7395899;19;20078;-84
2024/03/17 06:25:47;;;;;;;1.98;0.10;;;;;;;36.00;30.02;99366.47;7391813;19;20039;-84
2024/03/17 06:28:16;;;;;;;0.10;0.10;;;;;;;35.83;29.83;99369.38;7395302;19;20018;-84
2024/03/17 06:30:43;;;;;;;0.10;0.00;;;;;;;35.72;29.93;99360.28;7395180;19;20010;-84
2024/03/17 06:33:14;;;;;;;0.10;0.00;;;;;;;35.84;30.06;99360.03;7394617;19;20423;-85
2024/03/17 06:35:40;;;;;;;0.10;0.00;;;;;;;35.62;30.12;99364.94;7393165;19;20482;-85
2024/03/17 06:38:09;;;;;;;1.95;0.85;;;;;;;35.58;30.31;99361.91;7395805;19;20558;-85
2024/03/17 06:40:37;;;;;;;0.10;0.10;;;;;;;35.31;30.18;99357.16;7395273;19;20536;-85
2024/03/17 06:43:03;;;;;;;0.10;0.00;;;;;;;35.26;30.33;99355.50;7394888;19;20047;-85
2024/03/17 06:45:29;;;;;;;0.10;0.00;;;;;;;35.06;30.63;99367.00;7392848;19;20477;-85
2024/03/17 06:47:55;;;;;;;1.42;0.10;;;;;;;34.89;30.87;99364.06;7394161;19;20109;-85
2024/03/17 06:50:22;;;;;;;0.82;0.63;;;;;;;34.93;31.05;99352.66;7395166;19;20027;-85
2024/03/17 06:52:48;;;;;;;0.82;0.82;;;;;;;35.31;30.63;99357.16;7392697;19;20010;-85
2024/03/17 06:55:15;;;;;;;0.10;0.10;;;;;;;35.11;30.45;99353.44;7392812;19;20364;-86
2024/03/17 06:57:44;;;;;;;0.20;0.17;;;;;;;34.99;30.67;99355.81;7393911;19;20460;-85
2024/03/17 07:00:14;;;;;;;0.10;0.10;;;;;;;35.06;30.73;99360.47;7390691;19;20357;-85
2024/03/17 07:02:43;;;;;;;0.20;0.10;;;;;;;35.17;30.79;99356.59;7393704;19;20042;-85
2024/03/17 07:05:15;;;;;;;0.55;0.15;;;;;;;34.95;30.66;99356.41;7392465;19;20026;-85
2024/03/17 07:07:42;;;;;;;0.10;0.10;;;;;;;34.86;31.14;99366.13;7393426;19;20480;-85
2024/03/17 07:10:11;;;;;;;0.60;0.30;;;;;;;35.10;30.99;99363.53;7392210;19;20010;-86
2024/03/17 07:12:38;;;;;;;0.47;0.40;;;;;;;35.36;30.53;99364.63;7392927;19;20026;-85
2024/03/17 07:15:05;;;;;;;0.10;0.00;;;;;;;35.16;30.73;99360.13;7391349;19;20472;-85
2024/03/17 07:17:32;;;;;;;0.10;0.10;;;;;;;35.25;31.22;99371.41;7392040;19;20377;-85
2024/03/17 07:19:58;;;;;;;0.10;0.00;;;;;;;35.11;31.12;99359.22;7391598;19;20785;-85
2024/03/17 07:22:26;;;;;;;0.30;0.15;;;;;;;34.74;31.49;99367.75;7397188;19;20497;-86
2024/03/17 07:24:56;;;;;;;0.47;0.30;;;;;;;34.51;31.61;99365.28;7392774;19;20022;-86
2024/03/17 07:27:22;;;;;;;0.10;0.10;;;;;;;34.47;31.39;99365.09;7392161;19;20022;-84
2024/03/17 07:29:49;;;;;;;1.45;0.35;;;;;;;34.51;31.68;99365.28;7393027;19;20010;-85
2024/03/17 07:32:15;;;;;;;0.68;0.25;;;;;;;34.53;31.71;99366.13;7395751;19;20122;-85
2024/03/17 07:34:41;;;;;;;0.10;0.10;;;;;;;34.62;31.50;99361.44;7391373;19;20595;-86
2024/03/17 07:37:07;;;;;;;0.20;0.10;;;;;;;34.87;31.38;99358.19;7393855;19;20044;-86
2024/03/17 07:39:33;;;;;;;0.10;0.10;;;;;;;34.69;31.62;99358.16;7391080;19;20018;-86
2024/03/17 07:42:01;;;;;;;0.85;0.22;;;;;;;34.73;31.41;99354.69;7396654;19;20095;-87
2024/03/17 07:44:34;;;;;;;0.20;0.20;;;;;;;34.63;31.49;99351.38;7392288;19;20022;-86
2024/03/17 07:47:01;;;;;;;0.30;0.10;;;;;;;34.61;31.50;99351.28;7393212;19;20051;-87
2024/03/17 07:49:27;;;;;;;0.32;0.10;;;;;;;34.84;31.48;99345.78;7394063;19;20023;-86
2024/03/17 07:51:54;;;;;;;0.17;0.08;;;;;;;35.05;31.05;99353.94;7394991;19;20578;-87
2024/03/17 07:54:21;;;;;;;0.52;0.10;;;;;;;35.53;30.73;99352.28;7394615;19;20025;-86
2024/03/17 07:56:47;;;;;;;18.02;0.40;;;;;;;35.38;30.96;99341.53;7393312;19;20041;-87
2024/03/17 07:59:16;;;;;;;0.47;0.10;;;;;;;35.93;30.46;99337.88;7395395;19;20014;-89
2024/03/17 08:01:42;;;;;;;0.10;0.10;;;;;;;36.65;30.09;99325.31;7396536;19;20037;-90
2024/03/17 08:04:11;;;;;;;0.10;0.00;;;;;;;36.96;29.54;99328.63;7394084;19;20014;-88
2024/03/17 08:06:41;;;;;;;0.63;0.10;;;;;;;36.99;29.43;99330.16;7389978;19;20018;-90
2024/03/17 08:09:08;;;;;;;0.65;0.10;;;;;;;37.38;29.40;99331.44;7392817;19;20057;-90
2024/03/17 08:11:35;;;;;;;0.40;0.00;;;;;;;37.42;29.72;99332.31;7395404;19;20019;-91
2024/03/17 08:14:05;;;;;;;4.93;0.40;;;;;;;37.52;29.22;99335.53;7392205;19;20049;-90
2024/03/17 08:16:31;;;;;;;0.13;0.10;;;;;;;37.44;29.37;99323.66;7390459;19;20026;-91
2024/03/17 08:18:57;;;;;;;1.98;0.75;;;;;;;37.36;29.34;99322.66;7391708;19;20014;-89
2024/03/17 08:21:24;;;;;;;0.10;0.00;;;;;;;37.41;28.74;99325.00;7392372;19;20022;-89
2024/03/17 08:23:51;;;;;;;0.17;0.17;;;;;;;37.21;29.31;99322.19;7392346;19;20026;-90
2024/03/17 08:26:18;;;;;;;0.15;0.10;;;;;;;37.31;29.12;99333.38;7390615;19;20482;-90
2024/03/17 08:28:46;;;;;;;0.15;0.15;;;;;;;37.24;29.24;99317.94;7392889;19;20011;-90
2024/03/17 08:31:12;;;;;;;11.45;1.52;;;;;;;37.09;29.19;99313.09;7392136;19;20018;-89
2024/03/17 08:33:38;;;;;;;0.40;0.28;;;;;;;37.37;29.13;99324.88;7391364;19;20022;-88
2024/03/17 08:36:09;;;;;;;4.68;1.17;;;;;;;37.49;29.54;99310.00;7388377;19;20355;-86
2024/03/17 08:38:36;;;;;;;1.85;0.63;;;;;;;37.27;29.01;99310.03;7391042;19;20435;-84
2024/03/17 08:41:04;;;;;;;3.72;1.05;;;;;;;37.29;29.56;99312.25;7390708;19;20022;-85
2024/03/17 08:43:30;;;;;;;3.28;0.90;;;;;;;37.23;29.35;99325.16;7391754;19;20085;-87
2024/03/17 08:46:07;;;;;;;7.68;1.65;;;;;;;37.54;29.41;99323.22;7389213;19;20011;-87
2024/03/17 08:48:35;;;;;;;4.10;1.50;;;;;;;37.67;29.26;99319.28;7390701;19;20007;-87
2024/03/17 08:51:03;;;;;;;0.30;0.10;;;;;;;37.71;29.16;99328.09;7390662;19;20017;-87
2024/03/17 08:53:30;;;;;;;0.45;0.10;;;;;;;38.09;28.91;99326.38;7390800;19;20010;-87
2024/03/17 08:55:57;;;;;;;0.47;0.10;;;;;;;37.96;29.13;99324.53;7390029;19;20015;-86
2024/03/17 08:58:23;;;;;;;0.10;0.10;;;;;;;38.05;28.82;99332.09;7391776;19;20018;-87
2024/03/17 09:00:50;;;;;;;0.55;0.30;;;;;;;37.86;28.89;99339.50;7391585;19;20093;-86
2024/03/17 09:03:17;;;;;;;0.50;0.10;;;;;;;37.95;28.83;99352.88;7389937;19;20014;-86
2024/03/17 09:05:45;;;;;;;0.98;0.35;;;;;;;37.90;28.67;99338.91;7388284;19;20019;-86
2024/03/17 09:08:20;;;;;;;0.22;0.10;;;;;;;38.46;28.64;99351.44;7391044;19;20498;-86
2024/03/17 09:10:47;;;;;;;3.85;0.30;;;;;;;38.62;28.29;99351.88;7389359;19;20015;-87
2024/03/17 09:13:16;;;;;;;0.20;0.20;;;;;;;38.43;28.26;99353.56;7388099;19;20014;-87
2024/03/17 09:16:02;;;;;;;0.20;0.20;;;;;;;38.50;28.40;99352.31;7389911;19;20019;-86
2024/03/17 09:18:30;;;;;;;1.05;0.20;;;;;;;38.58;28.30;99367.06;7389601;19;20018;-86
2024/03/17 09:20:56;;;;;;;0.08;0.08;;;;;;;39.25;27.94;99348.44;7390938;19;20007;-87
2024/03/17 09:23:23;;;;;;;0.20;0.10;;;;;;;39.40;27.45;99350.28;7389380;19;20086;-87
2024/03/17 09:25:59;;;;;;;0.10;0.00;;;;;;;39.52;27.32;99341.84;7388120;19;20040;-88
2024/03/17 09:28:25;;;;;;;6.60;0.55;;;;;;;39.68;27.12;99342.22;7387439;19;20019;-88
2024/03/17 09:30:52;;;;;;;0.22;0.22;;;;;;;39.31;27.54;99342.78;7390602;19;20026;-88
2024/03/17 09:33:20;;;;;;;0.20;0.20;;;;;;;39.24;27.47;99355.72;7389545;19;20082;-87
2024/03/17 09:35:53;;;;;;;0.43;0.10;;;;;;;39.34;27.84;99359.63;7387669;19;20467;-87
2024/03/17 09:38:20;;;;;;;0.10;0.10;;;;;;;39.54;27.52;99362.28;7390725;19;20011;-86
2024/03/17 09:40:47;;;;;;;3.95;0.35;;;;;;;39.32;27.40;99364.66;7390025;19;20019;-87
2024/03/17 09:43:14;;;;;;;0.10;0.10;;;;;;;39.36;27.74;99350.94;7389059;19;20010;-87
2024/03/17 09:45:40;;;;;;;0.93;0.28;;;;;;;39.27;27.68;99357.25;7386677;19;20015;-87
2024/03/17 09:48:07;;;;;;;0.10;0.00;;;;;;;39.26;27.80;99370.34;7388311;19;20347;-86
2024/03/17 09:50:34;;;;;;;0.10;0.10;;;;;;;39.18;28.01;99358.50;7390071;19;20060;-87
2024/03/17 09:53:01;;;;;;;0.98;0.28;;;;;;;39.45;27.84;99362.78;7387380;19;20015;-87
2024/03/17 09:55:28;;;;;;;0.17;0.10;;;;;;;39.56;27.57;99365.28;7387275;19;20043;-87
2024/03/17 09:57:54;;;;;;;0.22;0.03;;;;;;;39.36;27.80;99361.84;7390796;19;20029;-87
2024/03/17 10:00:20;;;;;;;1.55;0.10;;;;;;;39.32;27.86;99370.50;7387995;19;20041;-87
2024/03/17 10:02:47;;;;;;;1.17;0.47;;;;;;;39.20;27.79;99373.13;7388946;19;20029;-87
2024/03/17 10:05:24;;;;;;;2.70;1.23;;;;;;;39.29;27.71;99372.63;7387232;19;20089;-87
2024/03/17 10:07:51;;;;;;;10.10;2.03;;;;;;;39.23;28.22;99371.72;7388535;19;20468;-87
2024/03/17 10:10:20;;;;;;;8.07;1.90;;;;;;;39.35;28.07;99354.53;7388955;19;20061;-87
2024/03/17 10:12:51;;;;;;;1.20;0.30;;;;;;;39.91;27.79;99352.94;7385745;19;20102;-86
2024/03/17 10:15:18;;;;;;;0.13;0.13;;;;;;;40.85;27.05;99353.41;7391878;19;20025;-87
2024/03/17 10:17:44;;;;;;;1.02;0.32;;;;;;;40.20;27.66;99368.16;7397318;19;20045;-87
2024/03/17 10:20:18;;;;;;;1.55;0.50;;;;;;;40.25;27.92;99363.88;7396880;19;20029;-87
2024/03/17 10:23:01;;;;;;;2.15;0.40;;;;;;;39.98;27.96;99366.25;7395605;19;20104;-87
2024/03/17 10:25:28;;;;;;;0.68;0.20;;;;;;;39.62;28.51;99370.50;7395346;19;20014;-87
2024/03/17 10:27:56;;;;;;;0.90;0.47;;;;;;;40.03;27.82;99367.06;7398514;19;20072;-87
2024/03/17 10:30:25;;;;;;;1.75;0.57;;;;;;;40.25;27.54;99366.78;7396004;19;20018;-86
2024/03/17 10:32:56;;;;;;;0.30;0.20;;;;;;;39.90;27.71;99368.97;7394667;19;20019;-86
2024/03/17 10:35:40;;;;;;;;;;;;;;;39.94;27.88;99365.38;7395736;19;20022;-87
2024/03/17 10:38:08;;;;;;;3.10;0.47;;;;;;;39.74;28.09;99365.69;7392541;19;19927;-86
2024/03/17 10:40:38;;;;;;;4.15;0.25;;;;;;;39.62;28.13;99370.50;7397268;19;20654;-87
2024/03/17 10:43:05;;;;;;;4.07;1.30;;;;;;;39.62;28.40;99353.00;7393581;19;20031;-87
2024/03/17 10:45:38;;;;;;;0.50;0.40;;;;;;;39.36;28.02;99356.75;7391348;19;20040;-87
2024/03/17 10:48:08;;;;;;;1.10;0.40;;;;;;;39.52;28.27;99356.41;7394032;19;20010;-87
2024/03/17 10:50:37;;;;;;;0.98;0.50;;;;;;;39.84;27.90;99357.16;7394077;19;20025;-87
2024/03/17 10:53:08;;;;;;;1.90;0.68;;;;;;;40.36;28.29;99345.13;7398817;19;20014;-87
2024/03/17 10:55:44;;;;;;;0.35;0.35;;;;;;;40.87;28.09;99338.84;7392043;19;20022;-87
2024/03/17 10:58:36;;;;;;;0.25;0.20;;;;;;;40.73;27.78;99347.31;7394674;19;20018;-87
2024/03/17 11:01:03;;;;;;;0.38;0.20;;;;;;;40.83;27.89;99335.84;7395962;19;20031;-87
2024/03/17 11:03:33;;;;;;;0.15;0.05;;;;;;;41.37;27.66;99336.78;7396615;19;20021;-87
2024/03/17 11:06:03;;;;;;;11.50;0.43;;;;;;;41.86;27.34;99343.34;7394010;19;20029;-87
2024/03/17 11:08:33;;;;;;;1.65;0.13;;;;;;;40.86;27.54;99343.22;7394222;19;20019;-87
2024/03/17 11:11:00;;;;;;;0.47;0.47;;;;;;;40.34;27.90;99339.25;7396023;19;20048;-86
2024/03/17 11:13:28;;;;;;;0.60;0.32;;;;;;;39.96;27.73;99334.06;7394446;19;20018;-87
2024/03/17 11:15:58;;;;;;;0.10;0.00;;;;;;;40.05;27.88;99332.84;7393947;19;20027;-86
2024/03/17 11:18:24;;;;;;;1.55;0.22;;;;;;;39.93;28.21;99331.81;7393285;19;20021;-87
2024/03/17 11:20:59;;;;;;;2.67;0.38;;;;;;;39.59;28.78;99331.81;7393147;19;20023;-86
2024/03/17 11:23:27;;;;;;;0.20;0.15;;;;;;;39.44;29.06;99332.88;7392781;19;20041;-86
2024/03/17 11:25:53;;;;;;;0.35;0.10;;;;;;;39.38;28.54;99329.81;7389448;19;20015;-86
2024/03/17 11:28:51;;;;;;;0.75;0.20;;;;;;;39.23;28.60;99330.94;7392968;19;20086;-85
2024/03/17 11:31:40;;;;;;;0.20;0.10;;;;;;;39.24;29.21;99329.50;7391348;19;20074;-84
2024/03/17 11:34:26;;;;;;;0.80;0.10;;;;;;;38.47;29.56;99344.94;7393463;19;20015;-93
2024/03/17 11:36:53;;;;;;;0.22;0.22;;;;;;;39.04;29.05;99338.47;7391520;19;20055;-87
2024/03/17 11:39:27;;;;;;;0.20;0.17;;;;;;;39.72;28.56;99344.50;7397290;19;20036;-87
2024/03/17 11:41:54;;;;;;;0.10;0.00;;;;;;;40.25;28.41;99335.44;7399359;19;20472;-88
2024/03/17 11:44:25;;;;;;;0.10;0.10;;;;;;;38.71;29.99;99341.22;7393361;19;20097;-87